TimeCST,TemperatureF,Dew PointF,Humidity,Sea Level PressureIn,VisibilityMPH,Wind Direction,Wind SpeedMPH,Gust SpeedMPH,PrecipitationIn,Events,Conditions,WindDirDegrees,DateUTC
12:15 AM,29.1,23.0,78,29.85,10.0,SW,13.8,-,N/A,,Clear,220,2013-01-07 06:15:00
12:35 AM,29.1,23.0,78,29.85,10.0,SW,16.1,-,N/A,,Clear,220,2013-01-07 06:35:00
12:55 AM,29.3,23.0,77,29.85,10.0,SW,12.7,-,N/A,,Clear,220,2013-01-07 06:55:00
1:55 AM,28.9,23.0,78,29.85,10.0,SW,10.4,-,N/A,,Clear,230,2013-01-07 07:55:00
2:15 AM,28.2,22.6,80,29.86,10.0,SW,5.8,-,N/A,,Clear,230,2013-01-07 08:15:00
2:35 AM,28.8,23.0,79,29.87,10.0,WSW,6.9,-,N/A,,Clear,240,2013-01-07 08:35:00
3:15 AM,27.5,21.7,79,29.87,10.0,West,6.9,-,N/A,,Clear,280,2013-01-07 09:15:00
3:35 AM,27.1,21.7,80,29.87,10.0,West,8.1,-,N/A,,Clear,280,2013-01-07 09:35:00
3:55 AM,26.4,20.8,79,29.87,10.0,West,5.8,-,N/A,,Clear,270,2013-01-07 09:55:00
4:15 AM,25.0,19.6,80,29.87,10.0,West,6.9,-,N/A,,Clear,280,2013-01-07 10:15:00
4:35 AM,25.5,20.1,80,29.87,10.0,West,8.1,-,N/A,,Clear,270,2013-01-07 10:35:00
5:15 AM,25.0,19.8,81,29.88,10.0,WNW,5.8,-,N/A,,Clear,290,2013-01-07 11:15:00
5:35 AM,26.1,19.9,78,29.88,10.0,WNW,5.8,-,N/A,,Clear,290,2013-01-07 11:35:00
5:55 AM,26.6,19.9,76,29.89,10.0,WNW,3.5,-,N/A,,Clear,300,2013-01-07 11:55:00
6:15 AM,26.2,19.4,75,29.89,10.0,West,5.8,-,N/A,,Clear,270,2013-01-07 12:15:00
6:35 AM,25.5,19.2,77,29.90,10.0,WNW,8.1,-,N/A,,Clear,290,2013-01-07 12:35:00
6:55 AM,24.8,18.5,77,29.91,10.0,WNW,8.1,-,N/A,,Clear,290,2013-01-07 12:55:00
7:15 AM,25.7,18.7,75,29.92,10.0,West,8.1,-,N/A,,Clear,280,2013-01-07 13:15:00
7:35 AM,24.4,18.1,77,29.94,10.0,WNW,9.2,-,N/A,,Clear,290,2013-01-07 13:35:00
7:55 AM,24.3,17.8,76,29.94,10.0,West,6.9,-,N/A,,Clear,280,2013-01-07 13:55:00
8:15 AM,23.5,17.6,78,29.96,10.0,West,8.1,-,N/A,,Clear,280,2013-01-07 14:15:00
8:35 AM,23.9,18.1,79,29.97,10.0,WNW,8.1,-,N/A,,Clear,290,2013-01-07 14:35:00
8:55 AM,24.8,18.3,76,29.97,10.0,West,5.8,-,N/A,,Clear,280,2013-01-07 14:55:00
9:15 AM,24.8,18.5,77,29.97,10.0,West,5.8,-,N/A,,Clear,280,2013-01-07 15:15:00
9:35 AM,25.7,19.0,76,29.98,10.0,West,6.9,-,N/A,,Clear,280,2013-01-07 15:35:00
9:55 AM,29.3,21.0,71,29.98,10.0,WNW,4.6,-,N/A,,Clear,290,2013-01-07 15:55:00
10:15 AM,31.8,21.7,66,29.99,10.0,WNW,4.6,-,N/A,,Clear,290,2013-01-07 16:15:00
10:35 AM,34.9,22.5,61,29.99,10.0,NW,4.6,-,N/A,,Clear,310,2013-01-07 16:35:00
10:55 AM,38.3,22.1,52,30.00,10.0,NW,4.6,-,N/A,,Clear,310,2013-01-07 16:55:00
11:15 AM,41.0,21.2,45,30.00,10.0,NW,4.6,-,N/A,,Clear,310,2013-01-07 17:15:00
11:35 AM,42.3,18.9,39,29.99,10.0,Calm,Calm,-,N/A,,Clear,0,2013-01-07 17:35:00
11:55 AM,43.5,17.2,35,29.98,10.0,Calm,Calm,-,N/A,,Clear,0,2013-01-07 17:55:00
12:15 PM,43.9,16.3,33,29.97,10.0,Calm,Calm,-,N/A,,Clear,0,2013-01-07 18:15:00
12:35 PM,44.4,16.5,33,29.95,10.0,South,3.5,-,N/A,,Clear,170,2013-01-07 18:35:00
12:55 PM,44.2,16.2,32,29.94,10.0,Calm,Calm,-,N/A,,Clear,0,2013-01-07 18:55:00
1:15 PM,45.1,16.0,31,29.94,10.0,SW,3.5,-,N/A,,Clear,230,2013-01-07 19:15:00
1:35 PM,45.9,17.1,32,29.93,10.0,SSW,3.5,-,N/A,,Clear,200,2013-01-07 19:35:00
1:55 PM,45.9,16.3,31,29.93,10.0,Calm,Calm,-,N/A,,Clear,0,2013-01-07 19:55:00
2:15 PM,46.0,16.3,30,29.92,10.0,Calm,Calm,-,N/A,,Clear,0,2013-01-07 20:15:00
2:35 PM,46.9,16.5,30,29.92,10.0,SW,3.5,-,N/A,,Clear,220,2013-01-07 20:35:00
2:55 PM,47.3,16.3,29,29.92,10.0,SSW,4.6,-,N/A,,Clear,200,2013-01-07 20:55:00
3:15 PM,47.3,16.2,29,29.91,10.0,SSW,4.6,-,N/A,,Clear,210,2013-01-07 21:15:00
3:35 PM,47.3,16.7,30,29.91,10.0,South,4.6,-,N/A,,Clear,190,2013-01-07 21:35:00
3:55 PM,47.1,18.1,32,29.92,10.0,South,4.6,-,N/A,,Clear,180,2013-01-07 21:55:00
4:15 PM,46.4,17.4,31,29.92,10.0,South,4.6,-,N/A,,Clear,180,2013-01-07 22:15:00
4:35 PM,44.8,18.9,36,29.92,10.0,South,3.5,-,N/A,,Clear,190,2013-01-07 22:35:00
4:55 PM,43.7,20.1,39,29.92,10.0,Calm,Calm,-,N/A,,Clear,0,2013-01-07 22:55:00
5:15 PM,41.9,20.7,43,29.92,10.0,Calm,Calm,-,N/A,,Clear,0,2013-01-07 23:15:00
5:35 PM,39.4,21.2,48,29.91,10.0,Calm,Calm,-,N/A,,Clear,0,2013-01-07 23:35:00
5:55 PM,34.5,21.0,58,29.91,10.0,South,5.8,-,N/A,,Clear,180,2013-01-07 23:55:00
6:15 PM,32.9,21.0,62,29.91,10.0,South,4.6,-,N/A,,Clear,190,2013-01-08 00:15:00
6:35 PM,32.0,21.2,64,29.91,10.0,South,4.6,-,N/A,,Clear,170,2013-01-08 00:35:00
6:55 PM,31.5,21.4,66,29.91,10.0,South,4.6,-,N/A,,Clear,170,2013-01-08 00:55:00
7:15 PM,27.9,21.0,75,29.90,10.0,South,6.9,-,N/A,,Clear,180,2013-01-08 01:15:00
7:35 PM,27.0,21.0,78,29.90,10.0,South,6.9,-,N/A,,Clear,180,2013-01-08 01:35:00
7:55 PM,27.3,21.0,77,29.90,10.0,South,5.8,-,N/A,,Clear,180,2013-01-08 01:55:00
8:15 PM,26.2,20.1,78,29.90,10.0,SSW,5.8,-,N/A,,Clear,200,2013-01-08 02:15:00
8:35 PM,27.5,20.8,76,29.90,10.0,SSW,5.8,-,N/A,,Clear,200,2013-01-08 02:35:00
8:55 PM,28.4,21.0,74,29.90,10.0,South,3.5,-,N/A,,Clear,190,2013-01-08 02:55:00
9:15 PM,28.9,21.0,72,29.90,10.0,Calm,Calm,-,N/A,,Clear,0,2013-01-08 03:15:00
9:35 PM,27.3,20.7,76,29.90,10.0,South,4.6,-,N/A,,Clear,190,2013-01-08 03:35:00
9:55 PM,23.5,18.0,79,29.89,10.0,South,8.1,-,N/A,,Clear,190,2013-01-08 03:55:00
10:15 PM,22.6,18.5,84,29.88,10.0,South,8.1,-,N/A,,Clear,170,2013-01-08 04:15:00
10:35 PM,25.3,20.1,81,29.87,10.0,South,8.1,-,N/A,,Clear,180,2013-01-08 04:35:00
10:55 PM,23.9,19.2,82,29.87,10.0,South,8.1,-,N/A,,Clear,180,2013-01-08 04:55:00
11:15 PM,24.1,19.2,82,29.86,10.0,SSE,9.2,-,N/A,,Clear,160,2013-01-08 05:15:00
11:35 PM,27.0,21.2,79,29.86,10.0,South,9.2,-,N/A,,Clear,180,2013-01-08 05:35:00
11:55 PM,25.3,19.4,78,29.85,10.0,South,8.1,-,N/A,,Clear,180,2013-01-08 05:55:00